Time;durP1;ratioP1;P1;durP2;ratioP2;P2;SDS_P1;SDS_P2;PMS_P1;PMS_P2;Temp;Humidity;BMP_temperature;BMP_pressure;BME280_temperature;BME280_humidity;BME280_pressure;Samples;Min_cycle;Max_cycle;Signal;HPM_P1;HPM_P2
2023/01/24 00:10:05;;;;;;;24.43;18.27;;;11.70;97.60;;;;;;4588923;19;20440;-39
2023/01/24 01:01:48;;;;;;;22.40;17.50;;;11.70;97.30;;;;;;4589004;19;20425;-42
2023/01/24 01:42:48;;;;;;;21.47;17.03;;;11.70;97.00;;;;;;4586405;19;20484;-40
2023/01/24 01:46:37;;;;;;;25.00;17.40;;;11.70;97.00;;;;;;4586719;19;20863;-37
2023/01/24 02:26:04;;;;;;;19.17;15.00;;;11.70;96.60;;;;;;4592616;19;20508;-41
2023/01/24 02:27:35;;;;;;;21.27;15.50;;;11.70;96.70;;;;;;4592526;19;20434;-43
2023/01/24 02:29:10;;;;;;;21.23;15.07;;;11.70;96.70;;;;;;4592446;19;20432;-35
2023/01/24 02:30:43;;;;;;;19.73;14.83;;;11.70;96.90;;;;;;4592390;19;20796;-35
2023/01/24 03:07:41;;;;;;;20.47;16.17;;;11.70;96.60;;;;;;4590282;19;20471;-38
2023/01/24 03:09:18;;;;;;;20.77;16.50;;;11.70;96.50;;;;;;4591942;19;20432;-42
2023/01/24 03:10:50;;;;;;;20.53;15.97;;;11.70;96.60;;;;;;4591700;19;20409;-38
2023/01/24 03:52:59;;;;;;;17.40;14.30;;;11.60;96.40;;;;;;4590500;19;20428;-40
2023/01/24 04:23:52;;;;;;;19.10;16.13;;;11.70;96.00;;;;;;4436158;19;3175477;-35
2023/01/24 04:25:23;;;;;;;;;;;11.80;96.00;;;;;;4613357;19;21101;-39
2023/01/24 04:26:54;;;;;;;18.23;15.50;;;11.80;95.90;;;;;;4612415;19;19922;-38
2023/01/24 04:28:26;;;;;;;17.35;15.50;;;11.70;96.00;;;;;;4612309;19;20010;-38
2023/01/24 04:29:57;;;;;;;;;;;11.80;96.00;;;;;;4614156;19;20007;-40
2023/01/24 04:31:28;;;;;;;17.17;14.77;;;11.80;95.90;;;;;;4609074;19;19966;-35
2023/01/24 04:33:00;;;;;;;20.67;15.97;;;11.70;95.90;;;;;;4612953;19;20017;-38
2023/01/24 04:34:32;;;;;;;17.30;13.98;;;11.70;96.00;;;;;;4609880;19;20471;-37
2023/01/24 04:36:04;;;;;;;18.15;14.48;;;11.80;95.90;;;;;;4612765;19;20470;-34
2023/01/24 04:37:35;;;;;;;15.98;14.10;;;11.80;95.90;;;;;;4612344;19;20026;-35
2023/01/24 04:39:08;;;;;;;17.73;14.23;;;11.80;95.90;;;;;;4612954;19;20022;-41
2023/01/24 04:40:40;;;;;;;18.02;13.63;;;11.80;95.90;;;;;;4611562;19;20448;-36
2023/01/24 04:42:13;;;;;;;18.00;14.63;;;11.80;95.90;;;;;;4611508;19;20020;-38
2023/01/24 04:43:44;;;;;;;17.75;14.05;;;11.80;96.00;;;;;;4610903;19;20452;-39
2023/01/24 04:45:15;;;;;;;17.17;14.68;;;11.80;95.90;;;;;;4613100;19;20014;-37
2023/01/24 04:46:46;;;;;;;19.25;15.25;;;11.80;96.00;;;;;;4612511;19;20046;-35
2023/01/24 04:48:18;;;;;;;18.13;14.30;;;11.80;95.90;;;;;;4610294;19;20018;-40
2023/01/24 04:49:49;;;;;;;17.55;14.63;;;11.80;95.90;;;;;;4611847;19;20363;-37
2023/01/24 04:51:21;;;;;;;18.03;14.33;;;11.80;95.90;;;;;;4609750;19;20014;-37
2023/01/24 04:52:53;;;;;;;17.65;15.05;;;11.80;95.80;;;;;;4609898;19;20511;-33
2023/01/24 04:54:24;;;;;;;15.48;13.02;;;11.80;95.80;;;;;;4611261;19;20018;-37
2023/01/24 04:56:01;;;;;;;18.33;14.90;;;11.90;95.80;;;;;;4611270;19;20018;-35
2023/01/24 04:57:33;;;;;;;18.47;15.80;;;11.90;95.70;;;;;;4612939;19;20482;-38
2023/01/24 04:59:04;;;;;;;20.60;15.65;;;11.90;95.60;;;;;;4611494;19;20491;-38
2023/01/24 05:00:36;;;;;;;19.23;15.13;;;12.00;95.60;;;;;;4611885;19;20156;-35
2023/01/24 05:02:09;;;;;;;17.57;14.17;;;12.00;95.60;;;;;;4611103;19;20452;-31
2023/01/24 05:03:41;;;;;;;18.58;15.32;;;12.00;95.60;;;;;;4610615;19;20543;-39
2023/01/24 05:05:12;;;;;;;20.77;14.87;;;12.00;95.60;;;;;;4610893;19;20036;-38
2023/01/24 05:06:43;;;;;;;17.30;14.25;;;12.00;95.50;;;;;;4610776;19;21030;-36
2023/01/24 05:08:15;;;;;;;;;;;12.00;95.50;;;;;;4613498;19;20454;-36
2023/01/24 05:09:46;;;;;;;18.37;15.20;;;12.00;95.50;;;;;;4610845;19;19943;-37
2023/01/24 05:11:17;;;;;;;17.08;14.15;;;12.00;95.70;;;;;;4610627;19;20369;-39
2023/01/24 05:12:49;;;;;;;17.20;14.00;;;12.10;95.70;;;;;;4610913;19;20022;-36
2023/01/24 05:14:21;;;;;;;18.77;14.57;;;12.10;95.70;;;;;;4610641;19;20814;-36
2023/01/24 05:15:52;;;;;;;19.00;15.45;;;12.20;95.60;;;;;;4610688;19;20530;-38
2023/01/24 05:17:24;;;;;;;18.10;15.75;;;12.20;95.60;;;;;;4610936;19;20018;-39
2023/01/24 05:18:56;;;;;;;20.63;16.20;;;12.10;95.60;;;;;;4609265;19;20010;-36
2023/01/24 05:20:27;;;;;;;19.17;15.88;;;10.40;96.70;;;;;;4612173;19;20432;-35
2023/01/24 05:21:58;;;;;;;22.65;17.98;;;8.90;98.70;;;;;;4610788;19;20025;-36
2023/01/24 05:23:30;;;;;;;;;;;8.20;99.90;;;;;;4598366;19;20468;-35
2023/01/24 05:26:47;;;;;;;22.27;18.23;;;7.70;99.90;;;;;;4593430;19;20634;-38
2023/01/24 05:28:19;;;;;;;25.60;19.48;;;7.60;99.90;;;;;;4593211;19;20507;-40
2023/01/24 05:29:50;;;;;;;;;;;7.50;99.90;;;;;;4591837;19;20018;-35
2023/01/24 05:31:21;;;;;;;22.83;17.50;;;7.40;99.90;;;;;;4592766;19;20324;-39
2023/01/24 05:32:56;;;;;;;24.73;18.20;;;7.40;99.90;;;;;;4592880;19;20022;-39
2023/01/24 05:34:27;;;;;;;22.67;17.47;;;7.30;99.90;;;;;;4593218;19;20022;-40
2023/01/24 05:35:59;;;;;;;21.90;16.50;;;7.30;99.90;;;;;;4592456;19;20503;-35
2023/01/24 05:37:31;;;;;;;24.33;18.53;;;7.30;99.90;;;;;;4592856;19;20007;-38
2023/01/24 05:39:03;;;;;;;23.23;17.90;;;7.20;99.90;;;;;;4593663;19;20505;-39
2023/01/24 05:40:36;;;;;;;22.50;17.77;;;7.20;99.90;;;;;;4592898;19;20103;-35
2023/01/24 05:42:07;;;;;;;24.98;18.00;;;7.20;99.90;;;;;;4593651;19;20465;-38
2023/01/24 05:43:39;;;;;;;22.70;17.42;;;7.20;99.90;;;;;;4593418;19;20030;-38
2023/01/24 05:45:10;;;;;;;21.83;17.65;;;7.20;99.90;;;;;;4593340;19;20058;-36
2023/01/24 05:46:43;;;;;;;22.25;18.05;;;7.20;99.90;;;;;;4592224;19;20021;-38
2023/01/24 05:48:14;;;;;;;21.07;16.57;;;8.00;99.90;;;;;;4592698;19;20021;-40
2023/01/24 05:49:45;;;;;;;24.27;16.90;;;8.80;99.90;;;;;;4591719;19;20460;-40
2023/01/24 05:51:19;;;;;;;21.13;17.05;;;9.40;99.90;;;;;;4592560;19;20014;-41
2023/01/24 05:52:50;;;;;;;22.23;17.47;;;9.80;99.30;;;;;;4592468;19;20578;-38
2023/01/24 05:54:21;;;;;;;19.02;15.15;;;10.00;98.90;;;;;;4592321;19;20473;-36
2023/01/24 05:55:58;;;;;;;21.57;17.00;;;10.20;98.60;;;;;;4592819;19;20026;-38
2023/01/24 05:57:30;;;;;;;22.67;17.07;;;10.40;98.40;;;;;;4592742;19;20457;-38
2023/01/24 05:59:03;;;;;;;19.43;15.67;;;10.50;98.10;;;;;;4589513;19;20484;-33
2023/01/24 06:00:34;;;;;;;21.52;17.33;;;10.60;98.00;;;;;;4589873;19;20465;-38
2023/01/24 06:02:05;;;;;;;21.52;16.45;;;10.70;97.90;;;;;;4592312;19;20025;-37
2023/01/24 06:03:37;;;;;;;19.13;15.35;;;10.80;97.70;;;;;;4591824;19;20022;-37
2023/01/24 06:05:09;;;;;;;19.97;16.87;;;10.80;97.60;;;;;;4591845;19;20406;-37
2023/01/24 06:06:41;;;;;;;20.55;16.58;;;10.90;97.50;;;;;;4592633;19;20791;-39
2023/01/24 06:08:12;;;;;;;20.73;16.25;;;10.90;97.40;;;;;;4592974;19;20011;-39
2023/01/24 06:09:44;;;;;;;21.60;17.10;;;11.00;97.40;;;;;;4592676;19;20014;-38
2023/01/24 06:11:20;;;;;;;20.73;16.48;;;11.00;97.30;;;;;;4591981;19;20014;-36
2023/01/24 06:12:52;;;;;;;21.90;17.47;;;11.10;97.20;;;;;;4592097;19;20090;-40
2023/01/24 06:14:23;;;;;;;21.45;17.05;;;11.10;97.10;;;;;;4591543;19;20461;-41
2023/01/24 06:16:03;;;;;;;19.48;15.85;;;11.20;97.00;;;;;;4592403;19;20022;-35
2023/01/24 06:17:35;;;;;;;22.07;17.73;;;11.30;96.90;;;;;;4591559;19;20014;-39
2023/01/24 06:19:07;;;;;;;19.27;15.70;;;11.40;96.80;;;;;;4592364;19;20560;-41
2023/01/24 06:20:39;;;;;;;19.40;16.00;;;11.40;96.70;;;;;;4590479;19;21102;-37
2023/01/24 06:22:30;;;;;;;18.83;15.13;;;11.50;96.60;;;;;;4591937;19;20010;-36
2023/01/24 06:24:01;;;;;;;20.40;15.67;;;11.50;96.50;;;;;;4591282;19;20007;-36
2023/01/24 06:25:35;;;;;;;19.27;15.80;;;11.60;96.50;;;;;;4593527;19;20418;-32
2023/01/24 07:21:38;;;;;;;18.90;15.47;;;11.80;95.90;;;;;;4590194;19;20514;-35
2023/01/24 07:23:29;;;;;;;18.07;15.57;;;11.80;95.90;;;;;;4589325;19;20988;-36
2023/01/24 07:25:01;;;;;;;19.53;16.27;;;11.80;95.90;;;;;;4588842;19;20449;-41
2023/01/24 07:26:32;;;;;;;20.83;16.10;;;11.70;95.90;;;;;;4589629;19;20810;-39
2023/01/24 07:28:04;;;;;;;24.15;18.45;;;11.80;95.90;;;;;;4590469;19;20009;-40
2023/01/24 07:29:36;;;;;;;21.67;17.30;;;11.80;95.90;;;;;;4590085;19;20079;-37
2023/01/24 07:31:07;;;;;;;22.60;17.63;;;11.70;95.80;;;;;;4589928;19;20451;-33
2023/01/24 07:32:39;;;;;;;20.80;17.47;;;11.80;95.90;;;;;;4589593;19;20018;-33
2023/01/24 07:34:11;;;;;;;;;;;11.80;95.90;;;;;;4592383;19;20455;-37
2023/01/24 07:35:42;;;;;;;21.70;17.23;;;11.80;96.00;;;;;;4589385;19;19919;-40
2023/01/24 07:37:16;;;;;;;19.97;16.17;;;11.80;95.90;;;;;;4590210;19;20437;-43
2023/01/24 07:38:47;;;;;;;18.93;15.83;;;11.70;96.00;;;;;;4589276;19;20433;-40
2023/01/24 07:40:19;;;;;;;18.50;15.53;;;11.80;96.00;;;;;;4590542;19;21008;-36
2023/01/24 07:41:51;;;;;;;19.27;16.40;;;11.80;96.00;;;;;;4589300;19;20436;-42
2023/01/24 07:43:23;;;;;;;19.67;16.53;;;11.80;96.00;;;;;;4589960;19;20022;-36
2023/01/24 07:44:56;;;;;;;22.08;17.70;;;11.80;95.90;;;;;;4590386;19;20778;-37
2023/01/24 07:46:28;;;;;;;20.90;16.90;;;11.80;96.00;;;;;;4590559;19;20019;-40
2023/01/24 07:48:00;;;;;;;21.92;18.05;;;11.80;95.90;;;;;;4590267;19;20445;-35
2023/01/24 07:49:32;;;;;;;22.60;17.90;;;11.70;95.90;;;;;;4590413;19;20011;-36
2023/01/24 07:51:03;;;;;;;24.00;17.85;;;11.70;95.90;;;;;;4590465;19;20416;-34
2023/01/24 07:52:36;;;;;;;21.13;16.67;;;11.70;95.90;;;;;;4590723;19;20051;-37
2023/01/24 07:54:08;;;;;;;22.63;17.70;;;11.70;95.80;;;;;;4590093;19;20479;-37
2023/01/24 07:55:40;;;;;;;19.17;16.67;;;11.70;95.80;;;;;;4590342;19;20512;-40
2023/01/24 07:57:12;;;;;;;17.60;15.40;;;11.80;95.90;;;;;;4590373;19;20014;-35
2023/01/24 07:58:43;;;;;;;20.42;16.60;;;11.80;95.90;;;;;;4589107;19;20065;-39
2023/01/24 08:00:14;;;;;;;27.00;19.77;;;11.70;95.90;;;;;;4589927;19;20100;-35
2023/01/24 08:01:46;;;;;;;29.00;21.83;;;11.80;95.90;;;;;;4589006;19;20017;-41
2023/01/24 08:03:18;;;;;;;32.90;22.47;;;11.70;95.90;;;;;;4589709;19;19998;-43
2023/01/24 08:04:50;;;;;;;34.00;22.07;;;11.70;95.80;;;;;;4589634;19;20470;-36
2023/01/24 08:06:21;;;;;;;31.63;22.63;;;11.80;95.90;;;;;;4589045;19;20484;-34
2023/01/24 08:07:54;;;;;;;28.13;21.20;;;11.80;95.90;;;;;;4589564;19;20018;-34
2023/01/24 08:09:27;;;;;;;27.47;19.80;;;11.80;96.00;;;;;;4590667;19;20437;-36
2023/01/24 08:10:58;;;;;;;32.58;23.17;;;11.80;95.90;;;;;;4589749;19;20445;-39
2023/01/24 08:12:29;;;;;;;33.83;22.10;;;11.80;95.90;;;;;;4588897;19;20489;-34
2023/01/24 08:14:01;;;;;;;24.50;19.00;;;11.80;96.00;;;;;;4590436;19;20006;-36
2023/01/24 08:15:34;;;;;;;29.50;21.20;;;11.80;96.00;;;;;;4590677;19;20424;-37
2023/01/24 08:17:05;;;;;;;26.05;19.80;;;11.70;95.90;;;;;;4589989;19;20425;-40
2023/01/24 08:18:38;;;;;;;27.43;20.63;;;11.70;95.90;;;;;;4590030;19;20006;-35
2023/01/24 08:20:11;;;;;;;32.50;23.70;;;11.70;95.80;;;;;;4590132;19;20431;-41
2023/01/24 08:30:18;;;;;;;28.60;20.27;;;11.70;95.70;;;;;;4587622;19;21217;-32
2023/01/24 08:31:55;;;;;;;25.23;19.83;;;11.70;95.80;;;;;;4587322;19;20505;-36
2023/01/24 08:33:28;;;;;;;30.00;20.63;;;11.80;95.90;;;;;;4587898;19;20476;-37
2023/01/24 08:35:01;;;;;;;31.45;22.35;;;11.70;96.00;;;;;;4588885;19;20444;-42
2023/01/24 08:36:34;;;;;;;24.93;19.20;;;11.80;96.00;;;;;;4590102;19;20023;-38
2023/01/24 08:38:06;;;;;;;23.77;18.30;;;11.70;95.90;;;;;;4589483;19;20433;-39
2023/01/24 08:39:37;;;;;;;28.83;20.40;;;11.80;96.00;;;;;;4588526;19;21031;-38
2023/01/24 08:41:09;;;;;;;27.27;19.48;;;11.80;96.10;;;;;;4589485;19;20028;-36
2023/01/24 08:42:41;;;;;;;;;;;11.80;95.90;;;;;;4590251;19;20002;-41
2023/01/24 08:44:13;;;;;;;25.88;18.92;;;11.80;95.80;;;;;;4588069;19;19918;-37
2023/01/24 08:45:45;;;;;;;;;;;11.80;95.80;;;;;;4589762;19;20022;-40
2023/01/24 08:47:16;;;;;;;23.77;17.87;;;11.80;95.70;;;;;;4589756;19;19927;-41
2023/01/24 08:48:47;;;;;;;21.70;17.50;;;11.90;95.70;;;;;;4589566;19;20467;-35
2023/01/24 08:50:29;;;;;;;24.70;18.70;;;11.90;95.70;;;;;;4589022;19;20018;-35
2023/01/24 08:52:01;;;;;;;23.10;18.00;;;11.90;95.80;;;;;;4588651;19;20515;-37
2023/01/24 08:53:33;;;;;;;21.83;18.27;;;11.90;95.80;;;;;;4589328;19;20343;-40
2023/01/24 08:55:24;;;;;;;23.73;17.63;;;11.90;95.80;;;;;;4589575;19;20433;-41
2023/01/24 08:56:55;;;;;;;23.50;18.37;;;11.90;95.80;;;;;;4591477;19;20022;-39
2023/01/24 08:58:27;;;;;;;22.40;18.40;;;11.90;95.70;;;;;;4590944;19;20476;-44
2023/01/24 08:59:59;;;;;;;20.80;16.77;;;11.90;95.70;;;;;;4592706;19;20011;-39
2023/01/24 09:01:33;;;;;;;19.52;16.15;;;11.90;95.70;;;;;;4592655;19;20459;-36
2023/01/24 09:03:04;;;;;;;23.37;16.67;;;11.90;95.90;;;;;;4592072;19;20347;-31
2023/01/24 09:04:36;;;;;;;22.17;17.00;;;11.80;95.60;;;;;;4593020;19;20779;-31
2023/01/24 09:06:07;;;;;;;22.95;17.27;;;11.90;95.50;;;;;;4594132;19;20451;-37
2023/01/24 09:07:41;;;;;;;21.00;15.50;;;11.90;95.50;;;;;;4594190;19;20022;-36
2023/01/24 09:09:12;;;;;;;20.20;14.97;;;11.90;95.40;;;;;;4593290;19;20015;-30
2023/01/24 09:10:44;;;;;;;16.85;13.55;;;12.00;95.30;;;;;;4593760;19;20437;-30
2023/01/24 09:12:16;;;;;;;18.30;14.57;;;12.10;95.20;;;;;;4592028;19;20021;-30
2023/01/24 09:13:47;;;;;;;15.88;13.45;;;12.20;95.10;;;;;;4593845;19;21031;-36
2023/01/24 09:15:20;;;;;;;15.80;13.17;;;12.30;95.00;;;;;;4593348;19;20022;-36
2023/01/24 09:16:52;;;;;;;16.23;13.80;;;12.30;94.90;;;;;;4593409;19;20449;-38
2023/01/24 09:18:24;;;;;;;16.33;13.70;;;12.40;94.80;;;;;;4593533;19;20444;-36
2023/01/24 09:19:56;;;;;;;17.10;13.43;;;12.40;94.80;;;;;;4593402;19;20011;-35
2023/01/24 09:21:28;;;;;;;14.57;12.27;;;12.40;94.90;;;;;;4593376;19;20010;-35
2023/01/24 09:23:00;;;;;;;;;;;12.40;94.80;;;;;;4594380;19;20018;-33
2023/01/24 09:24:31;;;;;;;16.35;12.25;;;12.40;94.80;;;;;;4592356;19;20331;-37
2023/01/24 09:26:04;;;;;;;16.37;12.50;;;12.30;94.90;;;;;;4592768;19;20010;-38
2023/01/24 09:27:36;;;;;;;14.97;12.50;;;12.40;94.80;;;;;;4593367;19;20441;-41
2023/01/24 09:29:07;;;;;;;13.90;11.33;;;12.30;94.70;;;;;;4592017;19;20455;-40
2023/01/24 09:30:40;;;;;;;14.90;11.63;;;12.30;94.60;;;;;;4592639;19;20470;-34
2023/01/24 09:32:12;;;;;;;;;;;12.30;94.70;;;;;;4592572;19;20448;-34
2023/01/24 09:33:45;;;;;;;14.77;11.90;;;12.20;94.70;;;;;;4593076;19;19926;-41
2023/01/24 09:35:16;;;;;;;15.02;12.30;;;12.20;94.70;;;;;;4593349;19;20992;-37
2023/01/24 09:36:49;;;;;;;15.90;12.57;;;12.20;94.70;;;;;;4593897;19;20010;-42
2023/01/24 09:38:22;;;;;;;17.67;13.95;;;12.20;94.80;;;;;;4592856;19;20494;-36
2023/01/24 09:39:55;;;;;;;16.37;13.33;;;12.20;94.80;;;;;;4591777;19;20010;-40
2023/01/24 09:41:50;;;;;;;16.67;13.53;;;12.20;94.90;;;;;;4593055;19;20467;-37
2023/01/24 09:43:34;;;;;;;16.83;13.30;;;12.10;94.80;;;;;;4589942;19;20534;-34
2023/01/24 09:45:29;;;;;;;17.87;13.77;;;12.10;94.90;;;;;;4590981;19;20464;-36
2023/01/24 09:47:06;;;;;;;15.43;12.60;;;12.10;94.80;;;;;;4589731;19;20433;-34
2023/01/24 09:48:37;;;;;;;16.40;13.50;;;12.10;94.80;;;;;;4591372;19;20861;-38
2023/01/24 09:50:15;;;;;;;18.40;13.98;;;12.10;94.90;;;;;;4590778;19;20477;-38
2023/01/24 09:51:49;;;;;;;15.63;12.63;;;12.10;94.70;;;;;;4590221;19;20025;-38
2023/01/24 09:53:51;;;;;;;19.63;14.77;;;12.10;94.70;;;;;;4590693;19;20472;-35
2023/01/24 09:55:32;;;;;;;17.33;13.63;;;12.10;94.70;;;;;;4590286;19;20484;-39
2023/01/24 09:57:26;;;;;;;17.27;14.02;;;12.10;95.00;;;;;;4591104;19;20461;-38
2023/01/24 09:59:17;;;;;;;16.33;12.57;;;12.00;94.90;;;;;;4588428;19;20016;-35
2023/01/24 10:00:49;;;;;;;17.93;13.03;;;12.00;94.80;;;;;;4590843;19;20457;-31
2023/01/24 10:02:29;;;;;;;13.43;11.50;;;12.00;94.90;;;;;;4591067;19;20497;-32
2023/01/24 10:04:00;;;;;;;14.77;11.33;;;12.00;94.90;;;;;;4590336;19;20770;-34
2023/01/24 10:05:35;;;;;;;15.75;11.65;;;12.00;94.70;;;;;;4589586;19;21146;-40
2023/01/24 10:07:43;;;;;;;13.57;11.73;;;12.00;94.70;;;;;;4589136;19;20015;-40
2023/01/24 10:09:48;;;;;;;14.87;11.77;;;12.00;94.50;;;;;;4589478;19;20509;-35
2023/01/24 10:11:29;;;;;;;16.30;11.90;;;12.00;94.60;;;;;;4588577;19;20465;-35
2023/01/24 10:13:35;;;;;;;15.47;13.00;;;12.00;94.40;;;;;;4588884;19;21169;-36
2023/01/24 10:15:24;;;;;;;13.57;11.50;;;12.00;94.30;;;;;;4589941;19;20537;-37
2023/01/24 10:17:16;;;;;;;15.73;11.70;;;12.00;94.30;;;;;;4590138;19;20449;-36
2023/01/24 10:19:05;;;;;;;18.25;13.90;;;12.00;94.50;;;;;;4591653;19;20429;-39
2023/01/24 10:20:57;;;;;;;15.57;11.07;;;12.00;94.30;;;;;;4589165;19;20014;-37
2023/01/24 10:22:49;;;;;;;17.83;12.83;;;12.00;94.10;;;;;;4589355;19;20428;-39
2023/01/24 10:24:22;;;;;;;14.40;12.47;;;12.00;94.20;;;;;;4590270;19;20440;-37
2023/01/24 10:25:58;;;;;;;16.03;11.90;;;12.00;94.20;;;;;;4589059;19;20948;-40
2023/01/24 10:29:31;;;;;;;18.63;13.43;;;12.00;94.30;;;;;;4590289;19;21033;-39
2023/01/24 10:31:18;;;;;;;15.23;12.40;;;12.00;94.40;;;;;;4588289;19;20487;-39
2023/01/24 10:32:53;;;;;;;14.43;11.63;;;12.00;94.40;;;;;;4589659;19;20852;-34
2023/01/24 10:34:29;;;;;;;16.30;12.37;;;12.00;94.40;;;;;;4588770;19;20452;-33
2023/01/24 10:36:08;;;;;;;13.23;11.47;;;12.00;94.50;;;;;;4588893;19;20520;-44
2023/01/24 10:37:42;;;;;;;13.40;11.27;;;12.00;94.50;;;;;;4589029;19;20425;-36
2023/01/24 10:39:13;;;;;;;16.30;12.30;;;11.90;94.40;;;;;;4591751;19;21048;-41
2023/01/24 10:40:56;;;;;;;12.27;10.60;;;11.90;94.30;;;;;;4591863;19;20581;-41
2023/01/24 10:42:30;;;;;;;12.63;10.73;;;11.90;94.30;;;;;;4592200;19;20020;-37
2023/01/24 10:44:13;;;;;;;14.60;11.77;;;11.90;94.30;;;;;;4591733;19;20485;-37
2023/01/24 10:46:08;;;;;;;13.93;11.77;;;11.90;94.20;;;;;;4589488;19;20447;-40
2023/01/24 10:48:05;;;;;;;15.17;11.07;;;11.90;93.90;;;;;;4590162;19;20567;-39
2023/01/24 10:49:39;;;;;;;14.70;11.13;;;11.90;94.00;;;;;;4589853;19;20509;-38
2023/01/24 10:51:14;;;;;;;12.40;10.13;;;11.90;93.90;;;;;;4591243;19;20456;-32
2023/01/24 10:52:48;;;;;;;13.90;10.87;;;11.90;93.80;;;;;;4591370;19;20558;-33
2023/01/24 10:54:22;;;;;;;12.87;10.90;;;11.90;93.80;;;;;;4590353;19;20440;-35
2023/01/24 10:56:01;;;;;;;13.90;12.00;;;11.90;94.00;;;;;;4591316;19;20456;-37
2023/01/24 10:57:49;;;;;;;17.15;13.52;;;11.90;93.90;;;;;;4591590;19;20483;-35
2023/01/24 10:59:20;;;;;;;15.70;12.40;;;11.90;94.00;;;;;;4591417;19;20074;-39
2023/01/24 11:01:08;;;;;;;18.83;13.77;;;11.90;94.10;;;;;;4591285;19;20437;-36
2023/01/24 11:02:40;;;;;;;16.03;11.47;;;11.90;94.20;;;;;;4590617;19;20435;-38
2023/01/24 11:04:20;;;;;;;14.97;12.17;;;11.90;94.10;;;;;;4590640;19;20793;-39
2023/01/24 11:05:57;;;;;;;16.43;12.83;;;11.90;94.30;;;;;;4589865;19;20539;-38
2023/01/24 11:07:33;;;;;;;16.73;12.87;;;11.90;94.20;;;;;;4590816;19;20452;-37
2023/01/24 11:09:10;;;;;;;15.50;12.60;;;11.90;94.10;;;;;;4590185;19;20401;-36
2023/01/24 11:10:41;;;;;;;16.63;14.27;;;11.90;94.20;;;;;;4590499;19;20427;-39
2023/01/24 11:12:13;;;;;;;;;;;11.90;94.10;;;;;;4590697;19;21080;-41
2023/01/24 11:13:44;;;;;;;19.53;17.53;;;11.90;94.10;;;;;;4590112;19;20279;-35
2023/01/24 11:15:28;;;;;;;19.23;14.07;;;11.80;93.80;;;;;;4589997;19;20518;-39
2023/01/24 11:17:01;;;;;;;17.47;15.00;;;11.80;93.90;;;;;;4590879;19;20516;-38
2023/01/24 11:18:33;;;;;;;15.20;13.00;;;11.80;93.90;;;;;;4589523;19;20452;-34
2023/01/24 11:20:24;;;;;;;;;;;11.80;94.00;;;;;;4590497;19;20467;-37
2023/01/24 11:21:58;;;;;;;13.50;11.80;;;11.90;94.20;;;;;;4589825;19;19915;-39
2023/01/24 11:23:32;;;;;;;14.83;12.63;;;11.90;94.20;;;;;;4590931;19;20451;-38
2023/01/24 11:25:11;;;;;;;15.63;12.27;;;11.80;94.10;;;;;;4589974;19;20467;-35
2023/01/24 11:26:55;;;;;;;15.93;13.23;;;11.80;94.30;;;;;;4589673;19;20356;-39
2023/01/24 11:28:27;;;;;;;15.87;13.30;;;11.80;94.20;;;;;;4591544;19;20497;-39
2023/01/24 11:30:15;;;;;;;;;;;11.80;94.20;;;;;;4591667;19;20518;-42
2023/01/24 11:31:51;;;;;;;14.47;11.60;;;11.80;94.10;;;;;;4589759;19;19919;-41
2023/01/24 11:33:50;;;;;;;15.27;11.93;;;11.80;94.10;;;;;;4591353;19;20421;-40
2023/01/24 11:35:28;;;;;;;14.70;12.50;;;11.80;94.10;;;;;;4589667;19;20472;-42
2023/01/24 11:37:35;;;;;;;16.47;12.67;;;11.90;94.20;;;;;;4589604;19;21064;-34
2023/01/24 11:39:20;;;;;;;15.17;12.33;;;11.90;94.20;;;;;;4590788;19;20425;-35
2023/01/24 11:41:04;;;;;;;16.23;11.27;;;11.90;94.10;;;;;;4589852;19;20441;-33
2023/01/24 11:42:48;;;;;;;15.43;12.67;;;11.90;94.20;;;;;;4590658;19;20429;-36
2023/01/24 11:44:43;;;;;;;16.80;13.33;;;11.90;94.10;;;;;;4589532;19;20354;-37
2023/01/24 11:46:37;;;;;;;17.37;12.77;;;11.80;94.20;;;;;;4588853;19;20496;-38
2023/01/24 11:48:20;;;;;;;19.70;15.17;;;11.80;94.40;;;;;;4588726;19;20561;-39
2023/01/24 11:50:08;;;;;;;;;;;11.80;94.30;;;;;;4588896;19;21055;-37
2023/01/24 11:51:51;;;;;;;21.37;15.67;;;11.80;94.20;;;;;;4587658;19;19935;-32
2023/01/24 11:53:45;;;;;;;20.20;15.03;;;11.80;94.30;;;;;;4588132;19;20429;-35
2023/01/24 11:55:39;;;;;;;18.00;13.73;;;11.80;94.40;;;;;;4587812;19;20433;-36
2023/01/24 11:57:13;;;;;;;18.87;14.47;;;11.80;94.50;;;;;;4587981;19;20432;-34
2023/01/24 11:58:47;;;;;;;17.37;14.70;;;11.80;94.60;;;;;;4588324;19;20474;-33
2023/01/24 12:00:24;;;;;;;22.60;15.27;;;11.80;94.60;;;;;;4587675;19;20783;-39
2023/01/24 12:02:15;;;;;;;24.13;18.47;;;11.80;94.70;;;;;;4587798;19;20433;-35
2023/01/24 12:04:08;;;;;;;16.97;14.70;;;11.80;94.80;;;;;;4587715;19;20441;-43
2023/01/24 12:06:02;;;;;;;18.57;14.77;;;11.80;94.60;;;;;;4587719;19;20500;-37
2023/01/24 12:07:43;;;;;;;16.63;13.83;;;11.80;94.70;;;;;;4587890;19;20503;-32
2023/01/24 12:09:35;;;;;;;18.10;15.07;;;11.80;94.60;;;;;;4587812;19;20441;-36
2023/01/24 12:11:15;;;;;;;15.80;13.82;;;11.80;94.60;;;;;;4587757;19;20552;-32
2023/01/24 12:13:18;;;;;;;17.40;14.00;;;11.80;94.60;;;;;;4586019;19;20043;-30
2023/01/24 12:14:52;;;;;;;14.77;13.13;;;11.80;94.50;;;;;;4587213;19;21051;-37
2023/01/24 12:16:45;;;;;;;16.57;14.17;;;11.80;94.40;;;;;;4587277;19;20481;-39
2023/01/24 12:18:19;;;;;;;15.93;12.87;;;11.80;94.40;;;;;;4587634;19;20437;-33
2023/01/24 12:20:33;;;;;;;15.03;13.40;;;11.80;94.50;;;;;;4587554;19;20809;-37
2023/01/24 12:22:22;;;;;;;17.00;13.67;;;11.80;94.40;;;;;;4587207;19;20448;-37
2023/01/24 12:24:01;;;;;;;17.33;13.47;;;11.80;94.30;;;;;;4587187;19;20445;-37
2023/01/24 12:25:34;;;;;;;18.37;14.17;;;11.80;94.30;;;;;;4587929;19;20433;-36
2023/01/24 12:27:16;;;;;;;16.47;13.40;;;11.80;94.10;;;;;;4587089;19;20818;-38
2023/01/24 12:29:09;;;;;;;17.27;13.93;;;11.80;94.10;;;;;;4589091;19;21064;-32
2023/01/24 12:30:43;;;;;;;19.43;13.70;;;11.80;94.20;;;;;;4587098;19;20500;-41
2023/01/24 12:32:24;;;;;;;15.77;13.43;;;11.70;94.40;;;;;;4586672;19;20475;-38
2023/01/24 12:33:59;;;;;;;16.60;13.03;;;11.80;94.30;;;;;;4591024;19;20461;-36
2023/01/24 12:35:36;;;;;;;14.47;12.60;;;11.80;94.40;;;;;;4591759;19;20465;-37
2023/01/24 12:37:24;;;;;;;16.27;13.00;;;11.80;94.20;;;;;;4591820;19;20452;-36
2023/01/24 12:38:59;;;;;;;17.77;13.47;;;11.80;94.10;;;;;;4592010;19;20460;-37
2023/01/24 12:40:44;;;;;;;18.67;13.40;;;11.80;94.20;;;;;;4592036;19;20423;-37
2023/01/24 12:42:19;;;;;;;14.90;12.13;;;11.80;94.40;;;;;;4591813;19;20480;-34
2023/01/24 12:44:28;;;;;;;15.17;12.93;;;11.80;94.30;;;;;;4591633;19;20552;-36
2023/01/24 12:46:17;;;;;;;17.73;13.27;;;11.70;94.30;;;;;;4591571;19;20457;-34
2023/01/24 12:48:10;;;;;;;17.93;13.70;;;11.70;94.30;;;;;;4591919;19;20590;-38
2023/01/24 12:50:12;;;;;;;124.00;77.03;;;11.70;94.40;;;;;;4591205;19;20428;-36
2023/01/24 12:52:06;;;;;;;30.50;24.60;;;11.70;94.10;;;;;;4591056;19;20480;-40
2023/01/24 12:53:52;;;;;;;24.07;18.67;;;11.70;94.30;;;;;;4591567;19;20029;-38
2023/01/24 12:56:01;;;;;;;18.83;15.32;;;11.70;94.20;;;;;;4591670;19;20436;-35
2023/01/24 12:58:02;;;;;;;26.23;19.03;;;11.70;94.00;;;;;;4591643;19;20021;-34
2023/01/24 12:59:49;;;;;;;32.20;24.37;;;11.70;93.80;;;;;;4589060;19;20448;-37
2023/01/24 13:01:27;;;;;;;30.37;23.57;;;11.70;93.60;;;;;;4591591;19;20409;-38
2023/01/24 13:03:20;;;;;;;25.83;21.63;;;11.60;93.50;;;;;;4591471;19;20484;-33
2023/01/24 13:05:01;;;;;;;;;;;11.70;93.70;;;;;;4592803;19;20457;-38
2023/01/24 13:06:36;;;;;;;19.07;16.27;;;11.70;93.90;;;;;;4591920;19;20334;-40
2023/01/24 13:08:25;;;;;;;18.57;14.90;;;11.70;93.60;;;;;;4591827;19;20481;-35
2023/01/24 13:10:17;;;;;;;16.93;14.20;;;11.70;93.70;;;;;;4591784;19;20580;-43
2023/01/24 13:11:49;;;;;;;23.02;18.40;;;11.70;93.80;;;;;;4588270;19;20481;-36
2023/01/24 13:13:36;;;;;;;21.57;17.47;;;11.70;93.80;;;;;;4588590;19;20018;-37
2023/01/24 13:15:23;;;;;;;21.47;18.00;;;11.70;93.70;;;;;;4593385;19;20453;-38
2023/01/24 13:17:15;;;;;;;17.33;14.07;;;11.70;93.80;;;;;;4591229;19;20488;-40
2023/01/24 13:19:18;;;;;;;26.30;22.47;;;11.60;93.70;;;;;;4591062;19;20536;-36
2023/01/24 13:21:22;;;;;;;22.00;18.25;;;11.70;93.80;;;;;;4591389;19;20479;-42
2023/01/24 13:23:13;;;;;;;21.37;18.23;;;11.70;94.00;;;;;;4590649;19;20037;-41
2023/01/24 13:25:15;;;;;;;18.40;15.37;;;11.70;94.40;;;;;;4591066;19;20491;-41
2023/01/24 13:27:13;;;;;;;16.20;13.60;;;11.80;94.70;;;;;;4588771;19;20468;-34
2023/01/24 13:28:59;;;;;;;16.30;13.57;;;11.80;94.50;;;;;;4590851;19;20457;-33
2023/01/24 13:31:13;;;;;;;17.20;13.90;;;11.90;94.40;;;;;;4590409;19;20429;-36